createdAt,value
2023-06-11T04:15:24.299Z,49.55
2023-06-11T04:16:24.392Z,49.85
2023-06-11T04:17:24.294Z,49.46
2023-06-11T04:18:24.243Z,49.65
2023-06-11T04:19:24.235Z,50.04
2023-06-11T04:20:24.304Z,50.13
2023-06-11T04:21:24.238Z,50.13
2023-06-11T04:22:24.248Z,50.13
2023-06-11T04:23:24.217Z,49.95
2023-06-11T04:24:24.288Z,49.75
2023-06-11T04:25:24.225Z,50.04
2023-06-11T04:26:24.195Z,50.04
2023-06-11T04:27:24.235Z,50.04
2023-06-11T04:28:24.198Z,50.26
2023-06-11T04:29:24.213Z,49.85
2023-06-11T04:30:24.227Z,50.35
2023-06-11T04:31:24.214Z,50.16
2023-06-11T04:32:24.244Z,50.16
2023-06-11T04:33:24.171Z,50.26
2023-06-11T04:34:24.225Z,50.26
2023-06-11T04:35:24.213Z,50.26
2023-06-11T04:36:24.172Z,50.55
2023-06-11T04:37:24.169Z,50.07
2023-06-11T04:38:24.168Z,50.35
2023-06-11T04:39:24.171Z,50.35
2023-06-11T04:40:24.185Z,50.45
2023-06-11T04:41:24.192Z,49.68
2023-06-11T04:42:24.171Z,50.16
2023-06-11T04:43:24.156Z,50.26
2023-06-11T04:44:24.162Z,50.35
2023-06-11T04:45:24.170Z,50.26
2023-06-11T04:46:24.222Z,50.16
2023-06-11T04:47:24.224Z,50.16
2023-06-11T04:48:24.182Z,50.35
2023-06-11T04:49:24.143Z,50.38
2023-06-11T04:50:24.146Z,50.16
2023-06-11T04:51:24.173Z,50.26
2023-06-11T04:52:24.139Z,49.99
2023-06-11T04:53:24.211Z,50.09
2023-06-11T04:54:24.163Z,50.09
2023-06-11T04:55:24.144Z,50.09
2023-06-11T04:56:24.158Z,50.09
2023-06-11T04:57:24.137Z,50.09
2023-06-11T04:58:24.234Z,49.99
2023-06-11T04:59:24.158Z,49.99
2023-06-11T05:00:24.126Z,50.18
2023-06-11T05:01:24.184Z,49.90
2023-06-11T05:02:24.287Z,49.99
2023-06-11T05:03:24.141Z,49.99
2023-06-11T05:04:24.177Z,49.90
2023-06-11T05:05:24.259Z,49.80
2023-06-11T05:06:24.167Z,49.99
2023-06-11T05:07:24.152Z,50.21
2023-06-11T05:08:24.141Z,49.80
2023-06-11T05:09:24.152Z,49.82
2023-06-11T05:10:24.124Z,50.02
2023-06-11T05:11:24.132Z,50.02
2023-06-11T05:12:24.130Z,49.73
2023-06-11T05:13:24.162Z,49.73
2023-06-11T05:14:24.137Z,49.92
2023-06-11T05:15:24.124Z,49.73
2023-06-11T05:16:24.200Z,49.73
2023-06-11T05:17:24.146Z,49.92
2023-06-11T05:18:24.135Z,50.02
2023-06-11T05:19:24.148Z,49.82
2023-06-11T05:20:24.126Z,49.54
2023-06-11T05:21:24.145Z,49.65
2023-06-11T05:22:24.119Z,49.27
2023-06-11T05:23:24.110Z,49.46
2023-06-11T05:24:24.164Z,49.56
2023-06-11T05:25:24.117Z,49.75
2023-06-11T05:26:24.097Z,49.85
2023-06-11T05:27:24.104Z,49.65
2023-06-11T05:28:24.131Z,49.95
2023-06-11T05:29:24.126Z,49.65
2023-06-11T05:30:24.096Z,49.46
2023-06-11T05:31:24.127Z,49.37
2023-06-11T05:32:24.213Z,49.46
2023-06-11T05:33:24.112Z,49.27
2023-06-11T05:34:24.130Z,49.75
2023-06-11T05:35:24.135Z,49.58
2023-06-11T05:36:24.098Z,49.58
2023-06-11T05:37:24.087Z,49.49
2023-06-11T05:38:24.120Z,49.39
2023-06-11T05:39:24.091Z,49.58
2023-06-11T05:40:24.093Z,49.39
2023-06-11T05:41:24.091Z,49.58
2023-06-11T05:42:24.184Z,49.39
2023-06-11T05:43:24.110Z,49.29
2023-06-11T05:44:24.086Z,49.49
2023-06-11T05:45:24.099Z,49.39
2023-06-11T05:46:24.158Z,49.41
2023-06-11T05:47:24.293Z,49.51
2023-06-11T05:48:24.199Z,49.32
2023-06-11T05:49:24.091Z,49.51
2023-06-11T05:50:24.086Z,49.51
2023-06-11T05:51:24.198Z,49.51
2023-06-11T05:52:24.084Z,49.41
2023-06-11T05:53:24.108Z,49.32
2023-06-11T05:54:24.096Z,49.22
2023-06-11T05:55:24.076Z,49.32
2023-06-11T05:56:24.104Z,49.41
2023-06-11T05:57:24.080Z,49.41
2023-06-11T05:58:24.082Z,49.22
2023-06-11T05:59:24.080Z,48.93
2023-06-11T06:00:24.080Z,49.24
2023-06-11T06:01:24.094Z,49.34
2023-06-11T06:02:24.225Z,49.24
2023-06-11T06:03:24.328Z,49.15
2023-06-11T06:04:24.151Z,49.15
2023-06-11T06:05:24.108Z,49.24
2023-06-11T06:06:24.100Z,49.15
2023-06-11T06:07:24.094Z,49.15
2023-06-11T06:08:24.090Z,49.15
2023-06-11T06:09:24.069Z,49.24
2023-06-11T06:10:24.106Z,49.24
2023-06-11T06:11:24.097Z,49.15
2023-06-11T06:12:24.070Z,49.05
2023-06-11T06:13:24.155Z,49.07
2023-06-11T06:14:24.085Z,48.97
2023-06-11T06:15:24.097Z,49.17
2023-06-11T06:16:26.717Z,49.17
2023-06-11T06:17:24.331Z,49.17
2023-06-11T06:18:24.113Z,49.07
2023-06-11T06:19:24.088Z,48.97
2023-06-11T06:20:24.101Z,49.07
2023-06-11T06:21:24.075Z,49.07
2023-06-11T06:22:24.113Z,49.07
2023-06-11T06:23:24.091Z,48.90
2023-06-11T06:24:24.222Z,49.00
2023-06-11T06:25:24.066Z,49.10
2023-06-11T06:26:24.112Z,49.00
2023-06-11T06:27:24.104Z,49.10
2023-06-11T06:28:24.089Z,48.90
2023-06-11T06:29:24.121Z,48.80
2023-06-11T06:30:24.105Z,49.00
2023-06-11T06:31:24.465Z,49.00
2023-06-11T06:32:24.129Z,49.00
2023-06-11T06:33:24.127Z,48.71
2023-06-11T06:34:24.128Z,48.90
2023-06-11T06:35:24.139Z,48.71
2023-06-11T06:36:24.108Z,48.83
2023-06-11T06:37:24.116Z,48.73
2023-06-11T06:38:24.100Z,48.73
2023-06-11T06:39:24.186Z,48.73
2023-06-11T06:40:24.272Z,48.83
2023-06-11T06:41:24.118Z,48.73
2023-06-11T06:42:24.111Z,48.73
2023-06-11T06:43:24.077Z,48.83
2023-06-11T06:44:24.079Z,48.64
2023-06-11T06:45:24.086Z,48.73
2023-06-11T06:46:24.131Z,48.66
2023-06-11T06:47:24.221Z,48.64
2023-06-11T06:48:24.200Z,48.66
2023-06-11T06:49:24.102Z,48.66
2023-06-11T06:50:24.085Z,48.47
2023-06-11T06:51:24.142Z,48.66
2023-06-11T06:52:24.086Z,48.47
2023-06-11T06:53:24.086Z,48.47
2023-06-11T06:54:24.087Z,48.47
2023-06-11T06:55:24.104Z,48.47
2023-06-11T06:56:24.107Z,48.47
2023-06-11T06:57:24.123Z,48.57
2023-06-11T06:58:24.088Z,48.49
2023-06-11T06:59:24.096Z,48.58
2023-06-11T07:00:24.096Z,48.30
2023-06-11T07:01:24.223Z,48.30
2023-06-11T07:02:24.163Z,48.39
2023-06-11T07:03:24.123Z,48.30
2023-06-11T07:04:24.121Z,48.20
2023-06-11T07:05:24.160Z,48.39
2023-06-11T07:06:24.139Z,48.39
2023-06-11T07:07:24.111Z,48.20
2023-06-11T07:08:24.151Z,48.32
2023-06-11T07:09:24.121Z,48.22
2023-06-11T07:10:24.103Z,48.22
2023-06-11T07:11:24.156Z,48.22
2023-06-11T07:12:24.140Z,48.22
2023-06-11T07:13:24.122Z,48.22
2023-06-11T07:14:24.177Z,48.03
2023-06-11T07:15:24.142Z,48.22
2023-06-11T07:16:24.161Z,48.13
2023-06-11T07:17:24.137Z,48.13
2023-06-11T07:18:24.114Z,48.22
2023-06-11T07:19:24.200Z,48.05
2023-06-11T07:20:24.210Z,47.96
2023-06-11T07:21:24.138Z,47.96
2023-06-11T07:22:24.123Z,47.96
2023-06-11T07:23:24.119Z,48.05
2023-06-11T07:24:24.288Z,47.96
2023-06-11T07:25:24.182Z,47.96
2023-06-11T07:27:31.027Z,47.98
2023-06-11T10:29:59.306Z,45.68
2023-06-11T10:30:59.273Z,45.68
2023-06-11T10:31:59.277Z,45.68
2023-06-11T10:32:59.543Z,45.98
2023-06-11T10:33:59.466Z,45.88
2023-06-11T10:34:59.387Z,45.88
2023-06-11T10:35:59.297Z,45.90
2023-06-11T10:36:59.289Z,45.98
2023-06-11T10:37:59.346Z,45.90
2023-06-11T10:38:59.320Z,45.90
2023-06-11T10:39:59.305Z,45.90
2023-06-11T10:40:59.313Z,45.90
2023-06-11T10:41:59.328Z,45.61
2023-06-11T10:42:59.344Z,45.80
2023-06-11T10:43:59.346Z,45.90
2023-06-11T10:44:59.351Z,45.90
2023-06-11T10:45:59.358Z,45.90
2023-06-11T10:46:59.362Z,45.83
2023-06-11T10:47:59.453Z,45.83
2023-06-11T10:48:59.378Z,45.63
2023-06-11T10:49:59.388Z,45.73
2023-06-11T10:50:59.380Z,45.24
2023-06-11T10:51:59.393Z,45.36
2023-06-11T10:52:59.426Z,45.26
2023-06-11T10:53:59.431Z,45.45
2023-06-11T10:54:59.392Z,45.36
2023-06-11T10:55:59.403Z,45.16
2023-06-11T10:56:59.408Z,45.26
2023-06-11T10:57:59.437Z,45.06
2023-06-11T10:58:59.449Z,45.09
2023-06-11T10:59:59.441Z,45.57
2023-06-11T11:00:59.412Z,45.38
2023-06-11T11:01:59.528Z,45.48
2023-06-11T11:03:00.737Z,45.57
2023-06-11T11:03:59.506Z,45.57
2023-06-11T11:04:59.457Z,45.48
2023-06-11T11:05:59.459Z,45.48
2023-06-11T11:06:59.492Z,45.01
2023-06-11T11:07:59.452Z,45.50
2023-06-11T11:08:59.469Z,45.50
2023-06-11T11:09:59.496Z,45.30
2023-06-11T11:10:59.467Z,45.32
2023-06-11T11:11:59.490Z,45.42
2023-06-11T11:12:59.478Z,45.42
2023-06-11T11:14:01.340Z,45.13
2023-06-11T11:14:59.497Z,45.23
2023-06-11T11:15:59.515Z,45.13
2023-06-11T11:16:59.734Z,45.03
2023-06-11T11:17:59.669Z,45.15
2023-06-11T11:18:59.525Z,45.05
2023-06-11T11:19:59.530Z,44.95
2023-06-11T11:20:59.554Z,45.05
2023-06-11T11:21:59.536Z,44.95
2023-06-11T11:22:59.597Z,44.95
2023-06-11T11:23:59.590Z,44.85
2023-06-11T11:24:59.551Z,44.78
2023-06-11T11:25:59.566Z,44.68
2023-06-11T11:26:59.613Z,44.58
2023-06-11T11:27:59.590Z,44.78
2023-06-11T11:28:59.608Z,44.68
2023-06-11T11:30:03.177Z,44.60
2023-06-11T11:30:59.678Z,44.40
2023-06-11T11:31:59.639Z,44.51
2023-06-11T11:32:59.661Z,44.43
2023-06-11T11:33:59.654Z,44.13
2023-06-11T11:34:59.631Z,44.23
2023-06-11T11:36:02.216Z,44.53
2023-06-11T11:36:59.649Z,44.53
2023-06-11T11:37:59.683Z,44.25
2023-06-11T11:38:59.686Z,43.96
2023-06-11T11:39:59.674Z,44.06
2023-06-11T11:40:59.707Z,43.96
2023-06-11T11:42:02.020Z,43.78
2023-06-11T11:42:59.726Z,44.15
2023-06-11T11:43:59.737Z,43.78
2023-06-11T11:44:59.738Z,43.98
2023-06-11T11:45:59.775Z,43.59
2023-06-11T11:46:59.742Z,43.51
2023-06-11T11:48:03.182Z,43.51
2023-06-11T11:48:59.753Z,43.60
2023-06-11T11:49:59.786Z,43.43
2023-06-11T11:50:59.766Z,43.52
2023-06-11T11:51:59.774Z,43.23
2023-06-11T11:52:59.801Z,43.25
2023-06-11T11:54:03.319Z,42.96
2023-06-11T11:54:59.804Z,43.15
2023-06-11T11:56:06.014Z,43.05
2023-06-11T11:56:59.820Z,42.96
2023-06-11T11:57:59.817Z,42.68
2023-06-11T11:58:59.853Z,42.88
2023-06-11T11:59:59.867Z,42.78
2023-06-11T12:00:59.847Z,42.70
2023-06-11T12:01:59.861Z,42.60
2023-06-11T12:02:59.963Z,42.60
2023-06-11T12:03:59.999Z,42.70
2023-06-11T12:04:59.879Z,42.70
2023-06-11T12:06:00.025Z,42.70
2023-06-11T12:06:59.910Z,42.70
2023-06-11T12:07:59.919Z,42.80
2023-06-11T12:08:59.975Z,42.40
2023-06-11T12:10:03.435Z,42.30
2023-06-11T12:10:59.950Z,42.32
2023-06-11T12:12:05.570Z,42.32
2023-06-11T12:12:59.981Z,42.13
2023-06-11T12:14:00.001Z,42.32
2023-06-11T12:14:59.973Z,41.93
2023-06-11T12:16:03.881Z,41.93
2023-06-11T12:17:00.039Z,42.13
2023-06-11T12:18:00.054Z,42.43
2023-06-11T12:19:14.454Z,41.93
2023-06-11T12:20:00.014Z,41.75
2023-06-11T12:21:00.052Z,42.05
2023-06-11T12:22:00.101Z,41.77
2023-06-11T12:23:00.042Z,41.65
2023-06-11T12:24:00.170Z,41.47
2023-06-11T12:25:00.102Z,41.28
2023-06-11T12:26:00.098Z,41.18
2023-06-11T12:27:00.134Z,41.38
2023-06-11T12:28:00.142Z,41.30
2023-06-11T12:29:00.118Z,41.20
2023-06-11T12:30:00.217Z,41.31
2023-06-11T12:31:00.167Z,41.22
2023-06-11T12:32:00.250Z,40.82
2023-06-11T12:33:00.281Z,41.31
2023-06-11T12:34:00.154Z,41.12
2023-06-11T12:35:00.182Z,40.82
2023-06-11T12:36:00.194Z,40.94
2023-06-11T12:37:00.172Z,40.84
2023-06-11T12:38:00.220Z,40.94
2023-06-11T12:39:00.198Z,40.64
2023-06-11T12:40:00.245Z,40.96
2023-06-11T12:41:00.234Z,40.84
2023-06-11T12:42:00.247Z,40.66
2023-06-11T12:43:00.689Z,40.84
2023-06-11T12:44:00.287Z,40.55
2023-06-11T12:45:00.421Z,40.74
2023-06-11T12:46:00.335Z,40.64
2023-06-11T12:47:00.278Z,40.34
2023-06-11T12:48:00.372Z,40.36
2023-06-11T12:49:00.291Z,40.36
2023-06-11T12:50:00.320Z,40.86
2023-06-11T12:51:00.330Z,40.07
2023-06-11T12:52:00.381Z,40.28
2023-06-11T12:53:00.336Z,40.19
2023-06-11T12:54:00.390Z,40.19
2023-06-11T12:55:00.389Z,40.09
2023-06-11T12:56:00.473Z,40.19
2023-06-11T12:57:00.386Z,40.19
2023-06-11T12:58:00.442Z,40.28
2023-06-11T12:59:00.427Z,39.89
2023-06-11T13:00:00.414Z,39.90
2023-06-11T13:01:00.481Z,39.81
2023-06-11T13:02:00.466Z,39.90
2023-06-11T13:03:00.481Z,39.51
2023-06-11T13:04:00.485Z,39.31
2023-06-11T13:05:00.667Z,39.31
2023-06-11T13:06:00.511Z,39.23
2023-06-11T13:07:00.517Z,39.73
2023-06-11T13:08:00.524Z,39.53
2023-06-11T13:09:00.516Z,39.03
2023-06-11T13:10:00.560Z,39.43
2023-06-11T13:11:00.547Z,39.33
2023-06-11T13:12:00.612Z,39.03
2023-06-11T13:13:00.552Z,39.15
2023-06-11T13:14:00.561Z,39.05
2023-06-11T13:15:00.660Z,39.35
2023-06-11T13:16:00.661Z,38.97
2023-06-11T13:17:00.653Z,38.97
2023-06-11T13:18:00.738Z,38.77
2023-06-11T13:19:00.649Z,38.69
2023-06-11T13:20:00.641Z,38.49
2023-06-11T13:21:00.692Z,38.29
2023-06-11T13:22:00.718Z,38.41
2023-06-11T13:23:00.663Z,38.21
2023-06-11T13:24:00.737Z,38.33
2023-06-11T13:25:00.716Z,38.23
2023-06-11T13:26:00.713Z,38.33
2023-06-11T13:27:00.706Z,38.03
2023-06-11T13:28:00.737Z,38.15
2023-06-11T13:29:00.756Z,37.85
2023-06-11T13:30:00.763Z,37.75
2023-06-11T13:31:00.789Z,37.75
2023-06-11T13:32:00.776Z,37.67
2023-06-11T13:33:00.877Z,37.57
2023-06-11T13:34:00.789Z,37.67
2023-06-11T13:35:00.855Z,37.47
2023-06-11T13:36:00.923Z,37.87
2023-06-11T13:38:33.385Z,37.47
2023-06-11T13:39:33.456Z,37.49
2023-06-11T13:40:33.405Z,37.38
2023-06-11T13:41:33.437Z,37.08
2023-06-11T13:42:33.448Z,37.38
2023-06-11T13:43:33.440Z,37.38
2023-06-11T13:44:33.496Z,37.30
2023-06-11T13:45:33.489Z,37.40
2023-06-11T13:46:33.517Z,37.30
2023-06-11T13:47:33.560Z,37.30
2023-06-11T13:48:33.517Z,37.21
2023-06-11T13:49:33.527Z,37.30
2023-06-11T13:50:33.563Z,37.01
2023-06-11T13:51:33.545Z,36.80
2023-06-11T13:52:33.596Z,36.61
2023-06-11T13:53:33.594Z,36.82
2023-06-11T13:54:33.578Z,36.91
2023-06-11T13:55:33.587Z,36.80
2023-06-11T13:56:33.657Z,36.82
2023-06-11T13:57:33.653Z,36.82
2023-06-11T13:58:33.634Z,36.31
2023-06-11T13:59:33.643Z,37.10
2023-06-11T14:00:33.708Z,36.93
2023-06-11T14:01:33.951Z,36.93
2023-06-11T14:02:33.762Z,36.52
2023-06-11T14:03:33.809Z,36.63
2023-06-11T14:04:33.727Z,36.52
2023-06-11T14:05:33.764Z,36.72
2023-06-11T14:06:33.787Z,36.63
2023-06-11T14:07:33.803Z,36.63
2023-06-11T14:08:33.760Z,36.91
2023-06-11T14:09:33.814Z,36.69
2023-06-11T14:10:33.825Z,36.49
2023-06-11T14:11:33.817Z,36.79
2023-06-11T14:12:33.817Z,36.91
2023-06-11T14:13:33.872Z,36.91
2023-06-11T14:14:33.875Z,37.01
2023-06-11T14:15:33.878Z,36.71
2023-06-11T14:16:33.938Z,36.51
2023-06-11T14:17:33.921Z,36.80
2023-06-11T14:18:33.919Z,36.61
2023-06-11T14:19:33.902Z,36.80
2023-06-11T14:20:33.929Z,36.61
2023-06-11T14:21:33.945Z,36.41
2023-06-11T14:22:33.945Z,36.41
2023-06-11T14:23:34.046Z,36.31
2023-06-11T14:24:34.035Z,36.41
2023-06-11T14:25:33.992Z,36.51
2023-06-11T14:26:33.997Z,36.21
2023-06-11T14:27:34.041Z,36.21
2023-06-11T14:28:34.026Z,36.29
2023-06-11T14:29:34.061Z,36.87
2023-06-11T14:30:34.053Z,36.87
2023-06-11T14:31:34.138Z,36.55
2023-06-11T14:32:34.364Z,36.85
2023-06-11T14:33:34.081Z,36.65
2023-06-11T14:34:34.129Z,36.77
2023-06-11T14:35:34.093Z,36.87
2023-06-11T14:36:34.101Z,36.77
2023-06-11T14:37:34.119Z,36.47
2023-06-11T14:38:34.169Z,36.37
2023-06-11T14:39:34.195Z,36.37
2023-06-11T14:40:34.157Z,36.57
2023-06-11T14:41:34.158Z,36.67
2023-06-11T14:42:34.202Z,36.57
2023-06-11T14:43:34.205Z,36.76
2023-06-11T14:44:34.258Z,36.77
2023-06-11T14:45:34.246Z,36.77
2023-06-11T14:46:34.262Z,36.57
2023-06-11T14:47:34.414Z,36.57
2023-06-11T14:48:34.236Z,36.47
2023-06-11T14:49:34.281Z,36.47
2023-06-11T14:50:34.265Z,36.65
2023-06-11T14:51:34.284Z,36.55
2023-06-11T14:52:34.308Z,36.55
2023-06-11T14:53:34.352Z,36.65
2023-06-11T14:54:34.315Z,36.55
2023-06-11T14:55:34.333Z,36.65
2023-06-11T14:56:34.363Z,36.65
2023-06-11T14:57:34.340Z,36.65
2023-06-11T14:59:34.375Z,36.55
2023-06-11T15:00:34.433Z,36.65
2023-06-11T15:01:34.548Z,36.74
2023-06-11T15:02:34.509Z,36.64
2023-06-11T15:03:34.474Z,36.54
2023-06-11T15:04:34.459Z,36.64
2023-06-11T15:05:34.482Z,36.54
2023-06-11T15:06:34.488Z,36.64
2023-06-11T15:07:35.988Z,36.32
2023-06-11T15:08:34.472Z,36.52
2023-06-11T15:09:34.497Z,36.42
2023-06-11T15:10:34.520Z,36.62
2023-06-11T15:11:34.511Z,36.70
2023-06-11T15:12:34.526Z,36.60
2023-06-11T15:13:34.541Z,36.40
2023-06-11T15:14:34.554Z,36.80
2023-06-11T15:15:34.570Z,36.58
2023-06-11T15:16:34.629Z,36.29
2023-06-11T15:17:34.622Z,36.78
2023-06-11T15:18:34.595Z,36.77
2023-06-11T15:19:34.664Z,36.66
2023-06-11T15:20:34.632Z,36.77
2023-06-11T15:21:34.684Z,36.45
2023-06-11T15:22:34.661Z,36.75
2023-06-11T15:23:34.739Z,36.75
2023-06-11T15:24:34.680Z,37.24
2023-06-11T15:25:34.699Z,36.93
2023-06-11T15:26:34.711Z,37.03
2023-06-11T15:27:34.705Z,37.11
2023-06-11T15:28:34.895Z,36.91
2023-06-11T15:29:34.738Z,37.39
2023-06-11T15:30:34.722Z,37.29
2023-06-11T15:31:34.781Z,37.27
2023-06-11T15:32:34.936Z,36.98
2023-06-11T15:33:34.830Z,37.55
2023-06-11T15:34:34.767Z,37.65
2023-06-11T15:35:34.797Z,37.75
2023-06-11T15:36:34.804Z,37.93
2023-06-11T15:37:34.805Z,37.81
2023-06-11T15:38:34.830Z,38.01
2023-06-11T15:39:34.823Z,38.01
2023-06-11T15:40:34.832Z,37.62
2023-06-11T15:41:34.904Z,38.09
2023-06-11T15:42:34.893Z,38.07
2023-06-11T15:43:34.842Z,38.07
2023-06-11T15:44:34.880Z,38.47
2023-06-11T15:45:34.888Z,38.45
2023-06-11T15:46:34.936Z,38.35
2023-06-11T15:47:35.126Z,38.33
2023-06-11T15:48:34.970Z,38.53
2023-06-11T15:49:34.912Z,38.71
2023-06-11T15:50:34.931Z,38.61
2023-06-11T15:51:34.962Z,38.61
2023-06-11T15:52:34.915Z,38.71
2023-06-11T15:53:34.924Z,38.69
2023-06-11T15:54:34.992Z,38.79
2023-06-11T15:55:34.993Z,38.96
2023-06-11T15:56:34.954Z,38.37
2023-06-11T15:57:34.974Z,38.75
2023-06-11T15:58:34.972Z,38.85
2023-06-11T15:59:35.032Z,38.95
2023-06-11T16:00:35.022Z,39.15
2023-06-11T16:01:35.064Z,39.03
2023-06-11T16:02:34.999Z,39.12
2023-06-11T16:03:35.123Z,39.12
2023-06-11T16:04:35.089Z,39.11
2023-06-11T16:05:35.072Z,39.01
2023-06-11T16:06:35.018Z,39.11
2023-06-11T16:07:35.099Z,39.11
2023-06-11T16:08:35.028Z,39.18
2023-06-11T16:09:35.101Z,39.39
2023-06-11T16:10:35.078Z,39.39
2023-06-11T16:11:35.069Z,39.68
2023-06-11T16:12:35.093Z,39.56
2023-06-11T16:13:35.096Z,39.66
2023-06-11T16:14:35.119Z,39.66
2023-06-11T16:15:35.260Z,39.64
2023-06-11T16:16:35.287Z,39.64
2023-06-11T16:29:14.039Z,39.68
2023-06-11T16:30:14.343Z,40.08
2023-06-11T16:31:14.019Z,40.47
2023-06-11T16:32:13.980Z,40.16
2023-06-11T16:33:14.058Z,39.95
2023-06-11T16:34:14.053Z,40.06
2023-06-11T16:35:14.444Z,40.06
2023-06-11T16:36:14.015Z,39.95
2023-06-11T16:37:14.004Z,40.43
2023-06-11T16:38:14.008Z,40.53
2023-06-11T16:39:26.729Z,40.63
2023-06-11T16:40:14.028Z,40.33
2023-06-11T16:41:14.036Z,40.33
2023-06-11T16:42:14.070Z,40.31
2023-06-11T16:43:14.032Z,40.51
2023-06-11T16:44:14.020Z,40.51
2023-06-11T16:45:14.318Z,40.80
2023-06-11T16:46:14.074Z,40.80
2023-06-11T16:47:14.097Z,40.68
2023-06-11T16:48:14.110Z,40.58
2023-06-11T16:49:14.126Z,40.70
2023-06-11T16:50:14.403Z,40.88
2023-06-11T16:51:14.096Z,40.48
2023-06-11T16:52:14.088Z,40.98
2023-06-11T16:53:14.062Z,40.88
2023-06-11T16:54:16.540Z,40.88
2023-06-11T16:55:14.474Z,40.86
2023-06-11T16:56:14.103Z,40.66
2023-06-11T16:57:14.090Z,40.86
2023-06-11T16:58:14.125Z,40.86
2023-06-11T16:59:14.107Z,40.56
2023-06-11T17:00:14.353Z,40.37
2023-06-11T17:01:14.184Z,41.15
2023-06-11T17:02:14.107Z,40.76
2023-06-11T17:03:14.163Z,41.15
2023-06-11T17:04:14.195Z,40.86
2023-06-11T17:05:14.152Z,40.84
2023-06-11T17:06:14.113Z,40.94
2023-06-11T17:07:14.117Z,41.13
2023-06-11T17:08:14.118Z,41.23
2023-06-11T17:09:14.242Z,41.03
2023-06-11T17:10:14.519Z,41.41
2023-06-11T17:11:14.144Z,41.33
2023-06-11T17:12:14.131Z,41.31
2023-06-11T17:13:14.140Z,41.50
2023-06-11T17:14:14.150Z,41.50
2023-06-11T17:15:14.264Z,41.21
2023-06-11T17:16:14.254Z,41.31
2023-06-11T17:17:14.191Z,41.60
2023-06-11T17:18:14.191Z,41.50
2023-06-11T17:19:14.158Z,41.29
2023-06-11T17:20:14.546Z,41.41
2023-06-11T17:21:14.196Z,41.50
2023-06-11T17:22:14.190Z,41.39
2023-06-11T17:23:14.171Z,41.29
2023-06-11T17:24:14.229Z,41.49
2023-06-11T17:25:14.581Z,41.49
2023-06-11T17:26:16.565Z,41.68
2023-06-11T17:27:14.171Z,41.58
2023-06-11T17:28:14.185Z,41.68
2023-06-11T17:29:14.208Z,41.49
2023-06-11T17:30:14.441Z,41.49
2023-06-11T17:31:14.272Z,41.46
2023-06-11T17:32:14.250Z,41.46
2023-06-11T17:33:14.317Z,41.27
2023-06-11T17:34:14.232Z,41.36
2023-06-11T17:35:14.375Z,41.76
2023-06-11T17:36:14.211Z,41.66
2023-06-11T17:37:14.215Z,41.86
2023-06-11T17:38:14.218Z,41.86
2023-06-11T17:39:14.264Z,41.56
2023-06-11T17:40:16.618Z,41.56
2023-06-11T17:41:14.222Z,41.74
2023-06-11T17:42:14.247Z,41.93
2023-06-11T17:43:14.251Z,41.83
2023-06-11T17:44:14.258Z,41.83
2023-06-11T17:45:14.226Z,41.83
2023-06-11T17:46:14.317Z,42.03
2023-06-11T17:47:14.249Z,41.93
2023-06-11T17:48:14.281Z,41.93
2023-06-11T17:49:14.288Z,42.13
2023-06-11T17:50:14.458Z,41.93
2023-06-11T17:51:14.837Z,42.22
2023-06-11T17:52:14.255Z,42.42
2023-06-11T17:53:14.277Z,42.13
2023-06-11T17:54:14.252Z,42.01
2023-06-11T17:55:14.533Z,42.40
2023-06-11T17:56:14.266Z,42.13
2023-06-11T17:57:14.291Z,42.11
2023-06-11T17:58:14.277Z,42.22
2023-06-11T17:59:14.270Z,42.01
2023-06-11T18:00:14.563Z,42.11
2023-06-11T18:01:14.368Z,42.11
2023-06-11T18:02:14.316Z,42.30
2023-06-11T18:03:14.322Z,42.30
2023-06-11T18:04:14.318Z,42.50
2023-06-11T18:05:14.576Z,42.21
2023-06-11T18:06:16.860Z,42.21
2023-06-11T18:07:14.290Z,42.09
2023-06-11T18:08:14.330Z,42.21
2023-06-11T18:09:14.303Z,42.60
2023-06-11T18:10:14.290Z,42.21
2023-06-11T18:11:14.305Z,42.38
2023-06-11T18:12:14.310Z,42.09
2023-06-11T18:13:14.317Z,42.48
2023-06-11T18:14:14.305Z,42.19
2023-06-11T18:15:31.346Z,42.29
2023-06-11T18:16:14.338Z,42.38
2023-06-11T18:17:14.324Z,42.29
2023-06-11T18:18:14.327Z,42.38
2023-06-11T18:19:14.357Z,42.19
2023-06-11T18:20:14.331Z,42.29
2023-06-11T18:21:14.343Z,42.38
2023-06-11T18:22:14.343Z,42.58
2023-06-11T18:23:14.364Z,42.58
2023-06-11T18:24:14.404Z,42.48
2023-06-11T18:25:14.669Z,42.38
2023-06-11T18:26:14.453Z,42.58
2023-06-11T18:27:14.401Z,42.68
2023-06-11T18:28:14.333Z,42.55
2023-06-11T18:29:14.344Z,42.68
2023-06-11T18:30:14.670Z,42.55
2023-06-11T18:31:14.357Z,42.65
2023-06-11T18:32:14.355Z,42.46
2023-06-11T18:33:14.416Z,42.55
2023-06-11T18:34:14.349Z,42.65
2023-06-11T18:35:14.358Z,42.75
2023-06-11T18:36:14.358Z,42.65
2023-06-11T18:37:14.438Z,42.65
2023-06-11T18:38:14.351Z,42.75
2023-06-11T18:39:14.357Z,42.75
2023-06-11T18:40:14.750Z,42.65
2023-06-11T18:41:14.370Z,42.94
2023-06-11T18:42:14.390Z,42.85
2023-06-11T18:43:14.376Z,42.85
2023-06-11T18:44:14.394Z,42.85
2023-06-11T18:45:14.387Z,42.85
2023-06-11T18:46:14.457Z,42.94
2023-06-11T18:47:14.407Z,43.12
2023-06-11T18:48:14.491Z,43.02
2023-06-11T18:49:14.426Z,42.83
2023-06-11T18:50:14.719Z,42.93
2023-06-11T18:51:14.376Z,42.83
2023-06-11T18:52:14.392Z,42.83
2023-06-11T18:53:14.478Z,42.93
2023-06-11T18:54:14.418Z,43.12
2023-06-11T18:55:14.406Z,42.83
2023-06-11T18:56:14.389Z,43.02
2023-06-11T18:57:14.397Z,42.83
2023-06-11T18:58:17.413Z,43.02
2023-06-11T18:59:14.436Z,42.93
2023-06-11T19:00:14.727Z,43.02
2023-06-11T19:01:14.442Z,43.02
2023-06-11T19:02:14.398Z,43.02
2023-06-11T19:03:14.482Z,43.10
2023-06-11T19:04:14.549Z,43.12
2023-06-11T19:05:14.474Z,43.00
2023-06-11T19:06:14.429Z,43.19
2023-06-11T19:07:14.432Z,43.19
2023-06-11T19:08:14.486Z,43.19
2023-06-11T19:09:14.440Z,43.10
2023-06-11T19:10:14.746Z,43.19
2023-06-11T19:11:14.443Z,43.10
2023-06-11T19:12:14.430Z,43.29
2023-06-11T19:13:14.445Z,43.39
2023-06-11T19:14:14.423Z,43.39
2023-06-11T19:15:14.457Z,43.39
2023-06-11T19:16:14.453Z,43.49
2023-06-11T19:17:14.514Z,43.59
2023-06-11T19:18:14.477Z,43.27
2023-06-11T19:19:14.431Z,43.18
2023-06-11T19:20:14.607Z,43.57
2023-06-11T19:21:14.478Z,43.47
2023-06-11T19:22:14.443Z,43.27
2023-06-11T19:23:14.472Z,43.37
2023-06-11T19:24:14.487Z,43.27
2023-06-11T19:25:14.467Z,43.27
2023-06-11T19:26:14.486Z,43.37
2023-06-11T19:27:14.504Z,43.47
2023-06-11T19:28:14.490Z,43.47
2023-06-11T19:29:14.468Z,43.37
2023-06-11T19:30:14.861Z,43.37
2023-06-11T19:31:14.574Z,43.37
2023-06-11T19:32:14.462Z,43.57
2023-06-11T19:33:14.464Z,43.27
2023-06-11T19:34:17.010Z,43.47
2023-06-11T19:35:14.500Z,43.47
2023-06-11T19:36:14.602Z,43.47
2023-06-11T19:37:14.493Z,43.66
2023-06-11T19:38:14.492Z,43.47
2023-06-11T19:39:14.467Z,43.57
2023-06-11T19:40:14.878Z,43.57
2023-06-11T19:41:15.819Z,43.44
2023-06-11T19:42:14.471Z,43.74
2023-06-11T19:43:14.472Z,43.84
2023-06-11T19:44:14.477Z,43.93
2023-06-11T19:45:14.503Z,43.74
2023-06-11T19:46:14.516Z,43.74
2023-06-11T19:47:14.517Z,43.84
2023-06-11T19:48:14.575Z,43.93
2023-06-11T19:49:14.515Z,43.74
2023-06-11T19:50:14.831Z,43.54
2023-06-11T19:51:14.508Z,43.93
2023-06-11T19:52:14.539Z,43.93
2023-06-11T19:53:14.513Z,43.84
2023-06-11T19:54:14.497Z,43.81
2023-06-11T19:55:14.561Z,43.81
2023-06-11T19:56:14.512Z,43.71
2023-06-11T19:57:14.544Z,43.84
2023-06-11T19:58:14.518Z,43.74
2023-06-11T19:59:15.186Z,43.62
2023-06-11T20:00:14.836Z,43.91
2023-06-11T20:01:14.502Z,43.71
2023-06-11T20:02:14.715Z,43.71
2023-06-11T20:03:14.588Z,44.01
2023-06-11T20:04:14.538Z,43.71
2023-06-11T20:05:14.610Z,44.20
2023-06-11T20:06:14.529Z,43.91
2023-06-11T20:07:14.521Z,44.10
2023-06-11T20:08:14.552Z,43.81
2023-06-11T20:09:14.519Z,44.10
2023-06-11T20:10:14.777Z,43.91
2023-06-11T20:11:14.538Z,43.99
2023-06-11T20:12:14.565Z,43.81
2023-06-11T20:13:14.541Z,44.40
2023-06-11T20:14:14.544Z,44.10
2023-06-11T20:15:14.552Z,44.49
2023-06-11T20:16:14.724Z,44.20
2023-06-11T20:17:14.522Z,44.38
2023-06-11T20:18:14.538Z,44.28
2023-06-11T20:19:14.545Z,44.38
2023-06-11T20:20:14.796Z,44.09
2023-06-11T20:21:14.853Z,44.09
2023-06-11T20:22:14.622Z,44.28
2023-06-11T20:23:14.670Z,43.99
2023-06-11T20:24:14.582Z,44.28